sensor_id;sensor_type;location;lat;lon;timestamp;pressure;altitude;pressure_sealevel;temperature;humidity
27202;BME280;14717;46.924;15.474;2023-07-30T00:00:26;97544.69;;;19.68;100.00
27202;BME280;14717;46.924;15.474;2023-07-30T00:02:52;97547.41;;;19.64;100.00
27202;BME280;14717;46.924;15.474;2023-07-30T00:05:17;97548.00;;;19.58;100.00
27202;BME280;14717;46.924;15.474;2023-07-30T00:07:43;97554.31;;;19.55;100.00
27202;BME280;14717;46.924;15.474;2023-07-30T00:10:09;97547.59;;;19.71;100.00
27202;BME280;14717;46.924;15.474;2023-07-30T00:12:34;97554.03;;;19.72;100.00
27202;BME280;14717;46.924;15.474;2023-07-30T00:14:59;97553.09;;;19.68;100.00
27202;BME280;14717;46.924;15.474;2023-07-30T00:17:25;97553.50;;;19.82;100.00
27202;BME280;14717;46.924;15.474;2023-07-30T00:19:50;97540.34;;;19.98;100.00
27202;BME280;14717;46.924;15.474;2023-07-30T00:22:15;97546.66;;;19.95;100.00
27202;BME280;14717;46.924;15.474;2023-07-30T00:24:41;97536.44;;;19.87;100.00
27202;BME280;14717;46.924;15.474;2023-07-30T00:27:06;97532.91;;;19.90;100.00
27202;BME280;14717;46.924;15.474;2023-07-30T00:29:31;97534.63;;;19.94;100.00
27202;BME280;14717;46.924;15.474;2023-07-30T00:31:57;97520.97;;;19.93;100.00
27202;BME280;14717;46.924;15.474;2023-07-30T00:34:22;97519.34;;;19.92;100.00
27202;BME280;14717;46.924;15.474;2023-07-30T00:36:48;97517.53;;;19.99;100.00
27202;BME280;14717;46.924;15.474;2023-07-30T00:39:13;97519.19;;;20.00;100.00
27202;BME280;14717;46.924;15.474;2023-07-30T00:41:38;97519.38;;;19.80;100.00
27202;BME280;14717;46.924;15.474;2023-07-30T00:44:04;97511.31;;;19.90;100.00
27202;BME280;14717;46.924;15.474;2023-07-30T00:46:30;97512.28;;;19.98;100.00
27202;BME280;14717;46.924;15.474;2023-07-30T00:48:55;97508.50;;;20.06;100.00
27202;BME280;14717;46.924;15.474;2023-07-30T00:51:21;97520.97;;;19.93;100.00
27202;BME280;14717;46.924;15.474;2023-07-30T00:53:47;97524.53;;;19.78;100.00
27202;BME280;14717;46.924;15.474;2023-07-30T00:56:12;97509.25;;;19.75;100.00
27202;BME280;14717;46.924;15.474;2023-07-30T00:58:39;97516.38;;;19.73;100.00
27202;BME280;14717;46.924;15.474;2023-07-30T01:01:06;97507.94;;;19.85;100.00
27202;BME280;14717;46.924;15.474;2023-07-30T01:03:32;97513.94;;;19.71;100.00
27202;BME280;14717;46.924;15.474;2023-07-30T01:05:57;97514.72;;;19.84;100.00
27202;BME280;14717;46.924;15.474;2023-07-30T01:08:23;97520.16;;;19.92;100.00
27202;BME280;14717;46.924;15.474;2023-07-30T01:10:48;97510.84;;;20.04;100.00
27202;BME280;14717;46.924;15.474;2023-07-30T01:13:15;97517.66;;;20.18;100.00
27202;BME280;14717;46.924;15.474;2023-07-30T01:15:41;97517.44;;;20.26;100.00
27202;BME280;14717;46.924;15.474;2023-07-30T01:18:07;97522.63;;;20.24;100.00
27202;BME280;14717;46.924;15.474;2023-07-30T01:20:32;97521.63;;;20.17;100.00
27202;BME280;14717;46.924;15.474;2023-07-30T01:23:01;97525.94;;;20.14;100.00
27202;BME280;14717;46.924;15.474;2023-07-30T01:25:30;97518.72;;;20.13;100.00
27202;BME280;14717;46.924;15.474;2023-07-30T01:27:59;97516.09;;;20.20;100.00
27202;BME280;14717;46.924;15.474;2023-07-30T01:30:29;97515.72;;;20.22;100.00
27202;BME280;14717;46.924;15.474;2023-07-30T01:32:56;97524.16;;;20.22;100.00
27202;BME280;14717;46.924;15.474;2023-07-30T01:35:25;97534.00;;;20.01;100.00
27202;BME280;14717;46.924;15.474;2023-07-30T01:37:51;97533.19;;;20.00;100.00
27202;BME280;14717;46.924;15.474;2023-07-30T01:40:17;97530.94;;;20.06;100.00
27202;BME280;14717;46.924;15.474;2023-07-30T01:42:43;97528.94;;;19.91;100.00
27202;BME280;14717;46.924;15.474;2023-07-30T01:45:08;97535.34;;;19.91;100.00
27202;BME280;14717;46.924;15.474;2023-07-30T01:47:34;97538.19;;;20.07;100.00
27202;BME280;14717;46.924;15.474;2023-07-30T01:49:59;97542.91;;;20.18;100.00
27202;BME280;14717;46.924;15.474;2023-07-30T01:52:25;97543.03;;;20.09;100.00
27202;BME280;14717;46.924;15.474;2023-07-30T01:54:50;97549.31;;;20.03;100.00
27202;BME280;14717;46.924;15.474;2023-07-30T01:57:16;97551.00;;;20.07;100.00
27202;BME280;14717;46.924;15.474;2023-07-30T01:59:41;97547.13;;;20.12;100.00
27202;BME280;14717;46.924;15.474;2023-07-30T02:02:07;97544.16;;;20.20;100.00
27202;BME280;14717;46.924;15.474;2023-07-30T02:04:33;97545.88;;;20.25;100.00
27202;BME280;14717;46.924;15.474;2023-07-30T02:06:58;97553.00;;;20.22;100.00
27202;BME280;14717;46.924;15.474;2023-07-30T02:09:24;97569.84;;;20.22;100.00
27202;BME280;14717;46.924;15.474;2023-07-30T02:11:49;97553.56;;;20.12;100.00
27202;BME280;14717;46.924;15.474;2023-07-30T02:14:14;97549.41;;;20.07;100.00
27202;BME280;14717;46.924;15.474;2023-07-30T02:16:40;97550.22;;;20.07;100.00
27202;BME280;14717;46.924;15.474;2023-07-30T02:19:05;97549.41;;;20.07;100.00
27202;BME280;14717;46.924;15.474;2023-07-30T02:21:30;97546.69;;;20.10;100.00
27202;BME280;14717;46.924;15.474;2023-07-30T02:23:59;97538.81;;;20.00;100.00
27202;BME280;14717;46.924;15.474;2023-07-30T02:26:24;97540.19;;;19.79;100.00
27202;BME280;14717;46.924;15.474;2023-07-30T02:28:50;97533.03;;;19.66;100.00
27202;BME280;14717;46.924;15.474;2023-07-30T02:31:15;97533.66;;;19.60;100.00
27202;BME280;14717;46.924;15.474;2023-07-30T02:33:40;97539.53;;;19.70;100.00
27202;BME280;14717;46.924;15.474;2023-07-30T02:36:06;97523.81;;;19.81;100.00
27202;BME280;14717;46.924;15.474;2023-07-30T02:38:31;97522.31;;;19.83;100.00
27202;BME280;14717;46.924;15.474;2023-07-30T02:40:56;97529.66;;;19.88;100.00
27202;BME280;14717;46.924;15.474;2023-07-30T02:43:22;97524.44;;;19.74;100.00
27202;BME280;14717;46.924;15.474;2023-07-30T02:45:48;97532.31;;;19.69;100.00
27202;BME280;14717;46.924;15.474;2023-07-30T02:48:14;97537.66;;;19.74;100.00
27202;BME280;14717;46.924;15.474;2023-07-30T02:50:39;97546.38;;;19.84;100.00
27202;BME280;14717;46.924;15.474;2023-07-30T02:53:04;97535.16;;;19.84;100.00
27202;BME280;14717;46.924;15.474;2023-07-30T02:55:30;97539.25;;;19.87;100.00
27202;BME280;14717;46.924;15.474;2023-07-30T02:57:55;97544.13;;;19.90;100.00
27202;BME280;14717;46.924;15.474;2023-07-30T03:00:20;97543.91;;;19.83;100.00
27202;BME280;14717;46.924;15.474;2023-07-30T03:02:46;97536.09;;;19.88;100.00
27202;BME280;14717;46.924;15.474;2023-07-30T03:05:11;97550.56;;;19.90;100.00
27202;BME280;14717;46.924;15.474;2023-07-30T03:07:37;97545.75;;;19.91;100.00
27202;BME280;14717;46.924;15.474;2023-07-30T03:10:03;97556.25;;;19.94;100.00
27202;BME280;14717;46.924;15.474;2023-07-30T03:12:28;97553.81;;;19.92;100.00
27202;BME280;14717;46.924;15.474;2023-07-30T03:14:54;97556.34;;;19.97;100.00
27202;BME280;14717;46.924;15.474;2023-07-30T03:17:19;97566.03;;;20.00;100.00
27202;BME280;14717;46.924;15.474;2023-07-30T03:19:46;97559.69;;;20.03;100.00
27202;BME280;14717;46.924;15.474;2023-07-30T03:22:11;97566.59;;;20.05;100.00
27202;BME280;14717;46.924;15.474;2023-07-30T03:24:37;97566.94;;;20.04;100.00
27202;BME280;14717;46.924;15.474;2023-07-30T03:27:02;97567.94;;;19.96;100.00
27202;BME280;14717;46.924;15.474;2023-07-30T03:29:28;97557.78;;;19.91;100.00
27202;BME280;14717;46.924;15.474;2023-07-30T03:31:53;97565.13;;;19.96;100.00
27202;BME280;14717;46.924;15.474;2023-07-30T03:34:18;97559.16;;;19.97;100.00
27202;BME280;14717;46.924;15.474;2023-07-30T03:36:44;97566.03;;;20.00;100.00
27202;BME280;14717;46.924;15.474;2023-07-30T03:39:09;97575.28;;;20.00;100.00
27202;BME280;14717;46.924;15.474;2023-07-30T03:41:36;97573.28;;;20.01;100.00
27202;BME280;14717;46.924;15.474;2023-07-30T03:44:01;97563.34;;;20.03;100.00
27202;BME280;14717;46.924;15.474;2023-07-30T03:46:27;97570.84;;;19.99;100.00
27202;BME280;14717;46.924;15.474;2023-07-30T03:48:52;97573.28;;;20.01;100.00
27202;BME280;14717;46.924;15.474;2023-07-30T03:51:17;97571.09;;;19.94;100.00
27202;BME280;14717;46.924;15.474;2023-07-30T03:53:43;97571.25;;;19.86;100.00
27202;BME280;14717;46.924;15.474;2023-07-30T03:56:08;97569.75;;;19.88;100.00
27202;BME280;14717;46.924;15.474;2023-07-30T03:58:33;97561.16;;;19.97;100.00
27202;BME280;14717;46.924;15.474;2023-07-30T04:00:59;97564.41;;;19.99;100.00
27202;BME280;14717;46.924;15.474;2023-07-30T04:03:24;97567.56;;;19.97;100.00
27202;BME280;14717;46.924;15.474;2023-07-30T04:05:50;97565.84;;;19.93;100.00
27202;BME280;14717;46.924;15.474;2023-07-30T04:08:16;97562.31;;;19.96;100.00
27202;BME280;14717;46.924;15.474;2023-07-30T04:10:41;97559.97;;;19.98;100.00
27202;BME280;14717;46.924;15.474;2023-07-30T04:13:06;97556.81;;;19.99;100.00
27202;BME280;14717;46.924;15.474;2023-07-30T04:15:33;97557.25;;;20.01;100.00
27202;BME280;14717;46.924;15.474;2023-07-30T04:17:59;97569.22;;;19.98;100.00
27202;BME280;14717;46.924;15.474;2023-07-30T04:20:24;97557.75;;;19.76;100.00
27202;BME280;14717;46.924;15.474;2023-07-30T04:22:51;97560.53;;;19.76;100.00
27202;BME280;14717;46.924;15.474;2023-07-30T04:25:16;97562.41;;;19.84;100.00
27202;BME280;14717;46.924;15.474;2023-07-30T04:27:42;97568.00;;;19.84;100.00
27202;BME280;14717;46.924;15.474;2023-07-30T04:30:07;97564.94;;;19.89;100.00
27202;BME280;14717;46.924;15.474;2023-07-30T04:32:33;97569.63;;;19.85;100.00
27202;BME280;14717;46.924;15.474;2023-07-30T04:34:58;97576.34;;;19.96;100.00
27202;BME280;14717;46.924;15.474;2023-07-30T04:37:24;97564.84;;;20.01;100.00
27202;BME280;14717;46.924;15.474;2023-07-30T04:39:49;97561.25;;;20.00;100.00
27202;BME280;14717;46.924;15.474;2023-07-30T04:42:14;97553.91;;;19.96;100.00
27202;BME280;14717;46.924;15.474;2023-07-30T04:44:40;97551.19;;;19.84;100.00
27202;BME280;14717;46.924;15.474;2023-07-30T04:47:06;97542.28;;;19.82;100.00
27202;BME280;14717;46.924;15.474;2023-07-30T04:49:32;97550.03;;;19.73;100.00
27202;BME280;14717;46.924;15.474;2023-07-30T04:51:57;97542.06;;;19.75;100.00
27202;BME280;14717;46.924;15.474;2023-07-30T04:54:23;97549.19;;;19.84;100.00
27202;BME280;14717;46.924;15.474;2023-07-30T04:56:48;97552.78;;;19.85;100.00
27202;BME280;14717;46.924;15.474;2023-07-30T04:59:13;97551.59;;;19.70;100.00
27202;BME280;14717;46.924;15.474;2023-07-30T05:01:38;97546.59;;;19.64;100.00
27202;BME280;14717;46.924;15.474;2023-07-30T05:04:04;97559.31;;;19.62;100.00
27202;BME280;14717;46.924;15.474;2023-07-30T05:06:29;97544.84;;;19.60;100.00
27202;BME280;14717;46.924;15.474;2023-07-30T05:08:55;97542.41;;;19.58;100.00
27202;BME280;14717;46.924;15.474;2023-07-30T05:11:20;97531.97;;;19.43;100.00
27202;BME280;14717;46.924;15.474;2023-07-30T05:13:45;97532.13;;;19.35;100.00
27202;BME280;14717;46.924;15.474;2023-07-30T05:16:11;97528.47;;;19.46;100.00
27202;BME280;14717;46.924;15.474;2023-07-30T05:18:36;97519.59;;;19.44;100.00
27202;BME280;14717;46.924;15.474;2023-07-30T05:21:01;97514.59;;;19.38;100.00
27202;BME280;14717;46.924;15.474;2023-07-30T05:23:27;97522.56;;;19.36;100.00
27202;BME280;14717;46.924;15.474;2023-07-30T05:25:52;97532.16;;;19.50;100.00
27202;BME280;14717;46.924;15.474;2023-07-30T05:28:17;97535.06;;;19.54;100.00
27202;BME280;14717;46.924;15.474;2023-07-30T05:30:43;97547.13;;;19.54;100.00
27202;BME280;14717;46.924;15.474;2023-07-30T05:33:08;97545.41;;;19.65;100.00
27202;BME280;14717;46.924;15.474;2023-07-30T05:35:34;97523.84;;;19.54;100.00
27202;BME280;14717;46.924;15.474;2023-07-30T05:38:00;97530.50;;;19.61;100.00
27202;BME280;14717;46.924;15.474;2023-07-30T05:40:25;97537.66;;;19.74;100.00
27202;BME280;14717;46.924;15.474;2023-07-30T05:42:50;97524.34;;;19.71;100.00
27202;BME280;14717;46.924;15.474;2023-07-30T05:45:16;97534.31;;;19.68;100.00
27202;BME280;14717;46.924;15.474;2023-07-30T05:47:41;97542.19;;;19.78;100.00
27202;BME280;14717;46.924;15.474;2023-07-30T05:50:07;97565.09;;;19.80;100.00
27202;BME280;14717;46.924;15.474;2023-07-30T05:52:32;97577.63;;;19.71;100.00
27202;BME280;14717;46.924;15.474;2023-07-30T05:54:58;97570.63;;;19.65;100.00
27202;BME280;14717;46.924;15.474;2023-07-30T05:57:24;97565.03;;;19.65;100.00
27202;BME280;14717;46.924;15.474;2023-07-30T05:59:49;97540.53;;;19.62;100.00
27202;BME280;14717;46.924;15.474;2023-07-30T06:02:15;97552.66;;;19.66;100.00
27202;BME280;14717;46.924;15.474;2023-07-30T06:04:40;97548.53;;;19.75;100.00
27202;BME280;14717;46.924;15.474;2023-07-30T06:07:06;97545.03;;;19.66;100.00
27202;BME280;14717;46.924;15.474;2023-07-30T06:09:31;97532.56;;;19.64;100.00
27202;BME280;14717;46.924;15.474;2023-07-30T06:11:57;97542.22;;;19.51;100.00
27202;BME280;14717;46.924;15.474;2023-07-30T06:14:23;97549.03;;;19.38;100.00
27202;BME280;14717;46.924;15.474;2023-07-30T06:16:49;97571.06;;;19.52;100.00
27202;BME280;14717;46.924;15.474;2023-07-30T06:19:14;97594.44;;;19.71;100.00
27202;BME280;14717;46.924;15.474;2023-07-30T06:21:40;97601.66;;;19.84;100.00
27202;BME280;14717;46.924;15.474;2023-07-30T06:24:05;97596.06;;;19.84;100.00
27202;BME280;14717;46.924;15.474;2023-07-30T06:26:30;97583.66;;;19.85;100.00
27202;BME280;14717;46.924;15.474;2023-07-30T06:28:56;97576.06;;;19.85;100.00
27202;BME280;14717;46.924;15.474;2023-07-30T06:31:22;97568.00;;;19.84;100.00
27202;BME280;14717;46.924;15.474;2023-07-30T06:33:47;97572.44;;;19.85;100.00
27202;BME280;14717;46.924;15.474;2023-07-30T06:36:12;97587.81;;;19.91;100.00
27202;BME280;14717;46.924;15.474;2023-07-30T06:38:38;97587.13;;;19.94;100.00
27202;BME280;14717;46.924;15.474;2023-07-30T06:41:03;97581.16;;;19.95;100.00
27202;BME280;14717;46.924;15.474;2023-07-30T06:43:28;97577.06;;;19.93;100.00
27202;BME280;14717;46.924;15.474;2023-07-30T06:45:54;97575.09;;;19.93;100.00
27202;BME280;14717;46.924;15.474;2023-07-30T06:48:20;97571.44;;;19.93;100.00
27202;BME280;14717;46.924;15.474;2023-07-30T06:50:45;97566.94;;;19.88;100.00
27202;BME280;14717;46.924;15.474;2023-07-30T06:53:10;97576.44;;;19.84;100.00
27202;BME280;14717;46.924;15.474;2023-07-30T06:55:36;97573.66;;;19.72;100.00
27202;BME280;14717;46.924;15.474;2023-07-30T06:58:01;97575.47;;;19.80;100.00
27202;BME280;14717;46.924;15.474;2023-07-30T07:00:27;97568.00;;;19.84;100.00
27202;BME280;14717;46.924;15.474;2023-07-30T07:02:52;97569.34;;;19.90;100.00
27202;BME280;14717;46.924;15.474;2023-07-30T07:05:18;97567.03;;;19.92;100.00
27202;BME280;14717;46.924;15.474;2023-07-30T07:07:43;97565.94;;;19.96;100.00
27202;BME280;14717;46.924;15.474;2023-07-30T07:10:08;97569.09;;;19.95;100.00
27202;BME280;14717;46.924;15.474;2023-07-30T07:12:36;97566.25;;;20.07;100.00
27202;BME280;14717;46.924;15.474;2023-07-30T07:15:02;97569.84;;;20.22;100.00
27202;BME280;14717;46.924;15.474;2023-07-30T07:17:28;97584.34;;;20.24;100.00
27202;BME280;14717;46.924;15.474;2023-07-30T07:19:53;97571.84;;;20.37;100.00
27202;BME280;14717;46.924;15.474;2023-07-30T07:22:19;97575.28;;;20.46;100.00
27202;BME280;14717;46.924;15.474;2023-07-30T07:24:44;97575.28;;;20.46;100.00
27202;BME280;14717;46.924;15.474;2023-07-30T07:27:10;97587.06;;;20.67;100.00
27202;BME280;14717;46.924;15.474;2023-07-30T07:29:36;97586.69;;;20.84;100.00
27202;BME280;14717;46.924;15.474;2023-07-30T07:32:02;97577.94;;;21.04;100.00
27202;BME280;14717;46.924;15.474;2023-07-30T07:34:27;97585.34;;;21.12;100.00
27202;BME280;14717;46.924;15.474;2023-07-30T07:36:53;97592.38;;;21.21;100.00
27202;BME280;14717;46.924;15.474;2023-07-30T07:39:19;97595.09;;;21.33;100.00
27202;BME280;14717;46.924;15.474;2023-07-30T07:41:44;97593.31;;;21.44;100.00
27202;BME280;14717;46.924;15.474;2023-07-30T07:44:10;97591.44;;;21.48;100.00
27202;BME280;14717;46.924;15.474;2023-07-30T07:46:35;97585.50;;;21.53;100.00
27202;BME280;14717;46.924;15.474;2023-07-30T07:49:01;97586.31;;;21.53;100.00
27202;BME280;14717;46.924;15.474;2023-07-30T07:51:26;97590.97;;;21.65;100.00
27202;BME280;14717;46.924;15.474;2023-07-30T07:53:52;97584.75;;;21.75;100.00
27202;BME280;14717;46.924;15.474;2023-07-30T07:56:17;97585.84;;;21.89;99.06
27202;BME280;14717;46.924;15.474;2023-07-30T07:58:42;97587.03;;;21.88;100.00
27202;BME280;14717;46.924;15.474;2023-07-30T08:01:08;97588.13;;;22.02;99.36
27202;BME280;14717;46.924;15.474;2023-07-30T08:03:33;97590.94;;;22.02;98.58
27202;BME280;14717;46.924;15.474;2023-07-30T08:05:59;97593.16;;;21.93;97.17
27202;BME280;14717;46.924;15.474;2023-07-30T08:08:25;97596.88;;;21.97;97.29
27202;BME280;14717;46.924;15.474;2023-07-30T08:10:51;97601.59;;;21.93;97.36
27202;BME280;14717;46.924;15.474;2023-07-30T08:13:17;97602.31;;;22.09;99.68
27202;BME280;14717;46.924;15.474;2023-07-30T08:15:42;97600.63;;;22.23;99.35
27202;BME280;14717;46.924;15.474;2023-07-30T08:18:07;97604.38;;;22.31;98.02
27202;BME280;14717;46.924;15.474;2023-07-30T08:20:33;97604.13;;;22.39;99.24
27202;BME280;14717;46.924;15.474;2023-07-30T08:22:58;97595.75;;;22.43;97.73
27202;BME280;14717;46.924;15.474;2023-07-30T08:25:24;97590.19;;;22.46;94.47
27202;BME280;14717;46.924;15.474;2023-07-30T08:27:49;97596.53;;;22.40;94.21
27202;BME280;14717;46.924;15.474;2023-07-30T08:30:14;97596.06;;;22.38;93.82
27202;BME280;14717;46.924;15.474;2023-07-30T08:32:40;97583.69;;;22.90;92.97
27202;BME280;14717;46.924;15.474;2023-07-30T08:35:07;97586.22;;;22.51;90.71
27202;BME280;14717;46.924;15.474;2023-07-30T08:37:32;97583.09;;;22.56;94.06
27202;BME280;14717;46.924;15.474;2023-07-30T08:39:58;97578.38;;;22.85;92.10
27202;BME280;14717;46.924;15.474;2023-07-30T08:42:24;97568.50;;;22.95;92.16
27202;BME280;14717;46.924;15.474;2023-07-30T08:44:49;97567.63;;;23.46;91.75
27202;BME280;14717;46.924;15.474;2023-07-30T08:47:15;97571.28;;;23.50;85.91
27202;BME280;14717;46.924;15.474;2023-07-30T08:49:40;97559.25;;;23.82;89.02
27202;BME280;14717;46.924;15.474;2023-07-30T08:52:08;97556.94;;;23.91;86.60
27202;BME280;14717;46.924;15.474;2023-07-30T08:54:36;97556.72;;;24.06;89.68
27202;BME280;14717;46.924;15.474;2023-07-30T08:57:02;97565.31;;;24.20;84.73
27202;BME280;14717;46.924;15.474;2023-07-30T08:59:31;97570.28;;;23.94;83.88
27202;BME280;14717;46.924;15.474;2023-07-30T09:01:59;97573.44;;;24.25;85.73
27202;BME280;14717;46.924;15.474;2023-07-30T09:04:27;97574.47;;;24.06;82.72
27202;BME280;14717;46.924;15.474;2023-07-30T09:06:54;97574.50;;;24.46;84.67
27202;BME280;14717;46.924;15.474;2023-07-30T09:09:19;97576.16;;;24.50;83.08
27202;BME280;14717;46.924;15.474;2023-07-30T09:11:51;97585.31;;;24.80;81.79
27202;BME280;14717;46.924;15.474;2023-07-30T09:14:19;97574.19;;;25.01;81.51
27202;BME280;14717;46.924;15.474;2023-07-30T09:16:44;97578.34;;;24.67;80.10
27202;BME280;14717;46.924;15.474;2023-07-30T09:19:16;97575.41;;;24.53;81.95
27202;BME280;14717;46.924;15.474;2023-07-30T09:21:42;97573.75;;;24.52;82.03
27202;BME280;14717;46.924;15.474;2023-07-30T09:24:07;97566.56;;;25.05;80.87
27202;BME280;14717;46.924;15.474;2023-07-30T09:26:42;97571.47;;;25.15;75.44
27202;BME280;14717;46.924;15.474;2023-07-30T09:29:09;97577.63;;;24.81;77.19
27202;BME280;14717;46.924;15.474;2023-07-30T09:31:55;97577.47;;;25.06;73.78
27202;BME280;14717;46.924;15.474;2023-07-30T09:34:23;97567.03;;;25.17;77.76
27202;BME280;14717;46.924;15.474;2023-07-30T09:36:53;97569.69;;;25.53;78.60
27202;BME280;14717;46.924;15.474;2023-07-30T09:39:21;97564.28;;;25.27;76.22
27202;BME280;14717;46.924;15.474;2023-07-30T09:41:47;97555.31;;;25.15;75.67
27202;BME280;14717;46.924;15.474;2023-07-30T09:44:13;97549.38;;;25.34;76.77
27202;BME280;14717;46.924;15.474;2023-07-30T09:46:43;97552.59;;;25.32;74.20
27202;BME280;14717;46.924;15.474;2023-07-30T09:49:09;97557.44;;;25.32;75.79
27202;BME280;14717;46.924;15.474;2023-07-30T09:51:36;97553.22;;;25.66;75.34
27202;BME280;14717;46.924;15.474;2023-07-30T09:54:02;97565.44;;;25.87;72.33
27202;BME280;14717;46.924;15.474;2023-07-30T09:56:28;97548.84;;;25.89;72.11
27202;BME280;14717;46.924;15.474;2023-07-30T09:58:53;97541.56;;;25.88;74.00
27202;BME280;14717;46.924;15.474;2023-07-30T10:01:21;97548.47;;;26.04;70.63
27202;BME280;14717;46.924;15.474;2023-07-30T10:03:49;97548.03;;;25.85;70.02
27202;BME280;14717;46.924;15.474;2023-07-30T10:06:15;97542.38;;;25.85;69.60
27202;BME280;14717;46.924;15.474;2023-07-30T10:08:41;97540.09;;;26.42;69.74
27202;BME280;14717;46.924;15.474;2023-07-30T10:11:08;97549.03;;;26.55;68.23
27202;BME280;14717;46.924;15.474;2023-07-30T10:13:35;97531.19;;;26.33;69.06
27202;BME280;14717;46.924;15.474;2023-07-30T10:16:01;97523.88;;;26.32;71.31
27202;BME280;14717;46.924;15.474;2023-07-30T10:18:37;97530.38;;;26.43;70.91
27202;BME280;14717;46.924;15.474;2023-07-30T10:21:03;97531.56;;;26.28;70.83
27202;BME280;14717;46.924;15.474;2023-07-30T10:23:32;97533.63;;;26.24;72.81
27202;BME280;14717;46.924;15.474;2023-07-30T10:25:58;97534.41;;;26.35;68.10
27202;BME280;14717;46.924;15.474;2023-07-30T10:30:59;97536.06;;;27.19;64.66
27202;BME280;14717;46.924;15.474;2023-07-30T10:36:09;97535.66;;;27.10;58.00
27202;BME280;14717;46.924;15.474;2023-07-30T10:38:35;97535.28;;;27.08;60.80
27202;BME280;14717;46.924;15.474;2023-07-30T10:41:13;97527.13;;;27.21;59.84
27202;BME280;14717;46.924;15.474;2023-07-30T10:43:41;97533.63;;;27.11;58.00
27202;BME280;14717;46.924;15.474;2023-07-30T10:46:08;97523.44;;;27.34;62.79
27202;BME280;14717;46.924;15.474;2023-07-30T10:48:35;97525.44;;;27.58;58.56
27202;BME280;14717;46.924;15.474;2023-07-30T10:51:04;97527.88;;;27.45;55.63
27202;BME280;14717;46.924;15.474;2023-07-30T10:53:30;97536.84;;;27.51;53.50
27202;BME280;14717;46.924;15.474;2023-07-30T10:56:00;97538.31;;;27.83;56.21
27202;BME280;14717;46.924;15.474;2023-07-30T10:58:28;97532.75;;;27.55;53.54
27202;BME280;14717;46.924;15.474;2023-07-30T11:00:54;97529.13;;;27.41;54.12
27202;BME280;14717;46.924;15.474;2023-07-30T11:03:20;97531.03;;;27.75;55.66
27202;BME280;14717;46.924;15.474;2023-07-30T11:05:48;97514.41;;;27.81;52.49
27202;BME280;14717;46.924;15.474;2023-07-30T11:08:14;97514.78;;;27.83;60.19
27202;BME280;14717;46.924;15.474;2023-07-30T11:10:47;97504.94;;;28.04;63.87
27202;BME280;14717;46.924;15.474;2023-07-30T11:13:15;97498.84;;;28.02;54.38
27202;BME280;14717;46.924;15.474;2023-07-30T11:15:44;97508.59;;;28.01;53.90
27202;BME280;14717;46.924;15.474;2023-07-30T11:18:12;97509.38;;;28.16;56.01
27202;BME280;14717;46.924;15.474;2023-07-30T11:20:39;97505.34;;;28.13;55.45
27202;BME280;14717;46.924;15.474;2023-07-30T11:23:21;97507.72;;;28.15;56.44
27202;BME280;14717;46.924;15.474;2023-07-30T11:25:50;97505.13;;;28.41;54.39
27202;BME280;14717;46.924;15.474;2023-07-30T11:28:32;97504.78;;;28.32;56.55
27202;BME280;14717;46.924;15.474;2023-07-30T11:30:58;97499.22;;;28.18;55.98
27202;BME280;14717;46.924;15.474;2023-07-30T11:33:25;97499.22;;;28.18;56.32
27202;BME280;14717;46.924;15.474;2023-07-30T11:35:50;97493.59;;;28.62;53.72
27202;BME280;14717;46.924;15.474;2023-07-30T11:38:16;97486.97;;;28.28;53.83
27202;BME280;14717;46.924;15.474;2023-07-30T11:40:45;97486.00;;;28.45;57.95
27202;BME280;14717;46.924;15.474;2023-07-30T11:43:13;97494.00;;;28.60;53.83
27202;BME280;14717;46.924;15.474;2023-07-30T11:45:39;97488.09;;;28.37;53.21
27202;BME280;14717;46.924;15.474;2023-07-30T11:48:10;97497.66;;;28.68;53.64
27202;BME280;14717;46.924;15.474;2023-07-30T11:50:49;97486.31;;;29.04;53.77
27202;BME280;14717;46.924;15.474;2023-07-30T11:53:16;97483.78;;;29.13;51.52
27202;BME280;14717;46.924;15.474;2023-07-30T11:55:43;97471.13;;;29.21;53.82
27202;BME280;14717;46.924;15.474;2023-07-30T11:58:09;97483.31;;;28.78;52.01
27202;BME280;14717;46.924;15.474;2023-07-30T12:00:40;97480.91;;;28.76;53.70
27202;BME280;14717;46.924;15.474;2023-07-30T12:03:14;97484.78;;;28.96;52.60
27202;BME280;14717;46.924;15.474;2023-07-30T12:05:40;97478.97;;;29.07;51.91
27202;BME280;14717;46.924;15.474;2023-07-30T12:08:06;97476.34;;;29.26;52.12
27202;BME280;14717;46.924;15.474;2023-07-30T12:10:44;97476.63;;;29.71;50.30
27202;BME280;14717;46.924;15.474;2023-07-30T12:13:17;97475.97;;;29.90;48.33
27202;BME280;14717;46.924;15.474;2023-07-30T12:16:03;97469.69;;;30.02;48.75
27202;BME280;14717;46.924;15.474;2023-07-30T12:18:28;97472.19;;;30.00;46.42
27202;BME280;14717;46.924;15.474;2023-07-30T12:20:54;97467.78;;;29.62;46.91
27202;BME280;14717;46.924;15.474;2023-07-30T12:23:20;97471.59;;;29.82;49.07
27202;BME280;14717;46.924;15.474;2023-07-30T12:25:46;97466.13;;;29.32;48.22
27202;BME280;14717;46.924;15.474;2023-07-30T12:28:12;97458.25;;;29.06;48.80
27202;BME280;14717;46.924;15.474;2023-07-30T12:30:37;97449.13;;;29.25;48.66
27202;BME280;14717;46.924;15.474;2023-07-30T12:33:03;97455.19;;;29.27;48.10
27202;BME280;14717;46.924;15.474;2023-07-30T12:35:29;97441.56;;;29.05;51.32
27202;BME280;14717;46.924;15.474;2023-07-30T12:37:55;97445.50;;;29.21;50.00
27202;BME280;14717;46.924;15.474;2023-07-30T12:40:20;97446.69;;;29.57;48.75
27202;BME280;14717;46.924;15.474;2023-07-30T12:42:46;97442.13;;;29.29;49.07